Rae — WDF3909 — position and weather

sailwx.info

Track history (hours):
 
Tides and Currents Weather Stations Pressure Air Temp Water Temp Dewpoint Dewpoint Depression Visibility Wind Speed Wind Dir Waves Ship Positions

Rae

Owner: Fox Marine Corporation, Easton, PA. More information available from US FCC via Universal Licensing System and Coast Guard Vessel Documentation Center.

Last reported at 2017-Jun-15 19:00 UTC. Time now 2017-Jul-26 08:46 UTC.
Position N 40°37' W 073°53'.
Warning: this ship's position is 40 days out of date.

; draft 2 m.

Type: Fishing. MMSI: 367445510.

Date/timePositionNaut miles runAvg speedWind from/ knotsBaromVisibWave heightAir tempDewpointWater temp
2017-Jun-15 19:00N 40°37' W 073°53'3 2.8
2017-Jun-15 17:58N 40°39' W 073°50'1 0.5
2017-Jun-15 16:35N 40°39' W 073°51'1 3.6
2017-Jun-15 16:13N 40°38' W 073°52'1 3.5
2017-Jun-15 15:53N 40°37' W 073°53'2 3.8
2017-Jun-15 15:28N 40°36' W 073°53'2 3.1
2017-Jun-15 14:50N 40°34' W 073°54'2 3.9
2017-Jun-15 14:23N 40°34' W 073°57'3 3.2
2017-Jun-15 13:30N 40°34' W 074°00'2 2.9
2017-Jun-15 12:59N 40°35' W 074°02'2 4.0
2017-Jun-15 12:30N 40°37' W 074°03'2 3.2
2017-Jun-15 12:00N 40°39' W 074°02'2 4.1
2017-Jun-15 11:30N 40°41' W 074°01'3 5.1
2017-Jun-15 11:00N 40°42' W 073°59'3 5.3
2017-Jun-15 10:30N 40°45' W 073°58'3 6.7
2017-Jun-15 10:00N 40°47' W 073°55'2 4.4
2017-Jun-15 09:29N 40°48' W 073°52'2 4.5
2017-Jun-15 09:00N 40°48' W 073°49'2 3.3
2017-Jun-15 08:29N 40°49' W 073°47'  
Track history (hours):
 
Tides and Currents Weather Stations Pressure Air Temp Water Temp Dewpoint Dewpoint Depression Visibility Wind Speed Wind Dir Waves Ship Positions

Rae

Owner: Fox Marine Corporation, Easton, PA. More information available from US FCC via Universal Licensing System and Coast Guard Vessel Documentation Center.

Last reported at 2017-Jun-15 19:00 UTC. Time now 2017-Jul-26 08:46 UTC.
Position N 40°37' W 073°53'.
Warning: this ship's position is 40 days out of date.

; draft 2 m.

Type: Fishing. MMSI: 367445510.

Date/timePositionNaut miles runAvg speedWind from/ knotsBaromVisibWave heightAir tempDewpointWater temp
2017-Jun-15 19:00N 40°37' W 073°53'3 2.8
2017-Jun-15 17:58N 40°39' W 073°50'1 0.5
2017-Jun-15 16:35N 40°39' W 073°51'1 3.6
2017-Jun-15 16:13N 40°38' W 073°52'1 3.5
2017-Jun-15 15:53N 40°37' W 073°53'2 3.8
2017-Jun-15 15:28N 40°36' W 073°53'2 3.1
2017-Jun-15 14:50N 40°34' W 073°54'2 3.9
2017-Jun-15 14:23N 40°34' W 073°57'3 3.2
2017-Jun-15 13:30N 40°34' W 074°00'2 2.9
2017-Jun-15 12:59N 40°35' W 074°02'2 4.0
2017-Jun-15 12:30N 40°37' W 074°03'2 3.2
2017-Jun-15 12:00N 40°39' W 074°02'2 4.1
2017-Jun-15 11:30N 40°41' W 074°01'3 5.1
2017-Jun-15 11:00N 40°42' W 073°59'3 5.3
2017-Jun-15 10:30N 40°45' W 073°58'3 6.7
2017-Jun-15 10:00N 40°47' W 073°55'2 4.4
2017-Jun-15 09:29N 40°48' W 073°52'2 4.5
2017-Jun-15 09:00N 40°48' W 073°49'2 3.3
2017-Jun-15 08:29N 40°49' W 073°47'  

Dump ship's entire track history